Time;durP1;ratioP1;P1;durP2;ratioP2;P2;SDS_P1;SDS_P2;PMS_P1;PMS_P2;Temp;Humidity;BMP_temperature;BMP_pressure;BME280_temperature;BME280_humidity;BME280_pressure;Samples;Min_cycle;Max_cycle;Signal;HPM_P1;HPM_P2
2024/01/13 00:00:11;;;;;;;32.40;17.50;;;;;;;6.23;58.79;102172.31;669882;29;1379;-94
2024/01/13 00:00:31;;;;;;;31.67;18.25;;;;;;;6.14;59.00;102168.28;672399;29;1269;-94
2024/01/13 00:00:52;;;;;;;30.00;17.43;;;;;;;6.23;58.66;102178.41;672596;29;1165;-94
2024/01/13 00:01:12;;;;;;;30.83;17.40;;;;;;;6.23;58.77;102168.03;672599;29;1209;-93
2024/01/13 00:01:33;;;;;;;33.88;16.80;;;;;;;6.25;58.53;102160.34;668924;29;1480;-93
2024/01/13 00:01:53;;;;;;;34.20;17.20;;;;;;;6.26;58.87;102167.34;669760;29;1259;-94
2024/01/13 00:02:14;;;;;;;33.75;17.50;;;;;;;6.22;58.89;102158.47;672434;29;1294;-94
2024/01/13 00:02:35;;;;;;;35.88;17.48;;;;;;;6.22;58.93;102170.50;670384;29;1290;-93
2024/01/13 00:02:55;;;;;;;37.60;17.97;;;;;;;6.23;58.85;102172.31;675072;29;782;-93
2024/01/13 00:03:16;;;;;;;34.50;17.52;;;;;;;6.18;59.03;102163.34;672455;29;1159;-93
2024/01/13 00:03:36;;;;;;;28.55;16.98;;;;;;;6.24;59.09;102169.84;672286;29;1218;-93
2024/01/13 00:03:57;;;;;;;28.30;16.87;;;;;;;6.14;58.73;102160.50;675103;29;1160;-94
2024/01/13 00:04:18;;;;;;;29.73;16.45;;;;;;;6.22;59.22;102170.50;669914;29;1286;-93
2024/01/13 00:04:38;;;;;;;31.02;17.00;;;;;;;6.20;58.74;102164.34;672089;29;1179;-93
2024/01/13 00:04:59;;;;;;;31.97;16.10;;;;;;;6.16;59.10;102160.63;672028;29;1693;-93
2024/01/13 00:05:19;;;;;;;29.08;16.33;;;;;;;6.14;59.03;102159.63;672087;29;1157;-93
2024/01/13 00:05:40;;;;;;;32.55;16.52;;;;;;;6.14;59.19;102163.09;668476;29;1309;-94
2024/01/13 00:06:01;;;;;;;31.97;17.60;;;;;;;6.14;58.91;102170.00;669534;29;1253;-93
2024/01/13 00:06:22;;;;;;;32.63;17.75;;;;;;;6.13;58.90;102157.81;667282;29;1250;-93
2024/01/13 00:06:42;;;;;;;30.83;17.50;;;;;;;6.13;58.69;102165.59;674687;29;1269;-93
2024/01/13 00:07:03;;;;;;;30.20;17.20;;;;;;;6.11;59.08;102167.19;674738;29;1982;-93
2024/01/13 00:07:24;;;;;;;31.98;17.17;;;;;;;6.17;58.91;102165.03;674991;29;1295;-93
2024/01/13 00:07:45;;;;;;;31.83;17.23;;;;;;;6.16;59.06;102165.81;672235;29;1286;-93
2024/01/13 00:08:05;;;;;;;31.13;16.70;;;;;;;6.12;59.11;102167.28;667326;29;1178;-93
2024/01/13 00:08:26;;;;;;;34.05;17.00;;;;;;;6.23;58.88;102173.22;669776;29;1333;-94
2024/01/13 00:08:47;;;;;;;33.77;17.00;;;;;;;6.14;58.77;102157.03;672369;29;1323;-93
2024/01/13 00:09:08;;;;;;;33.63;17.35;;;;;;;6.10;59.17;102163.72;672325;29;1306;-93
2024/01/13 00:09:28;;;;;;;29.45;16.63;;;;;;;6.10;59.12;102158.53;672188;29;1192;-93
2024/01/13 00:09:49;;;;;;;30.80;16.87;;;;;;;6.10;59.26;102155.94;672348;29;1247;-93
2024/01/13 00:10:10;;;;;;;29.02;16.20;;;;;;;6.09;58.97;102153.22;672293;29;1222;-92
2024/01/13 00:10:30;;;;;;;28.67;16.20;;;;;;;6.06;59.14;102156.50;677103;29;1258;-93
2024/01/13 00:10:51;;;;;;;29.10;15.80;;;;;;;6.14;59.01;102163.09;670023;29;1398;-93
2024/01/13 00:11:11;;;;;;;28.63;15.50;;;;;;;6.12;59.10;102156.94;669850;29;1255;-93
2024/01/13 00:11:32;;;;;;;31.00;16.30;;;;;;;6.10;59.30;102160.19;671110;29;1173;-93
2024/01/13 00:11:53;;;;;;;29.00;16.65;;;;;;;6.11;59.04;102151.63;672490;29;1217;-93
2024/01/13 00:12:14;;;;;;;29.70;16.20;;;;;;;6.16;59.02;102160.63;669793;29;1159;-93
2024/01/13 00:12:34;;;;;;;32.15;16.42;;;;;;;6.10;59.18;102142.06;672116;29;1224;-93
2024/01/13 00:12:56;;;;;;;33.47;16.35;;;;;;;6.11;59.17;102146.44;669912;29;1611;-93
2024/01/13 00:13:17;;;;;;;37.35;16.90;;;;;;;6.14;59.29;102141.50;672241;29;1350;-93
2024/01/13 00:13:37;;;;;;;33.78;16.05;;;;;;;6.18;59.10;102147.78;674810;29;1297;-93
2024/01/13 00:13:58;;;;;;;32.08;15.90;;;;;;;6.23;58.89;102152.47;677656;29;1305;-93
2024/01/13 00:14:19;;;;;;;30.90;15.90;;;;;;;6.21;59.08;102153.16;672518;29;1252;-93
2024/01/13 00:14:39;;;;;;;31.90;16.88;;;;;;;6.12;59.18;102148.25;674984;29;1273;-93
2024/01/13 00:15:00;;;;;;;30.77;17.38;;;;;;;6.07;58.91;102140.16;669789;29;1207;-94
2024/01/13 00:15:21;;;;;;;32.35;18.30;;;;;;;6.14;59.16;102142.38;672410;29;1400;-92
2024/01/13 00:15:41;;;;;;;32.93;17.77;;;;;;;6.12;59.07;102140.47;672331;29;1123;-93
2024/01/13 00:16:02;;;;;;;32.90;17.25;;;;;;;6.20;58.90;102156.56;671766;29;1194;-93
2024/01/13 00:16:23;;;;;;;32.45;17.15;;;;;;;6.14;59.18;102141.50;672460;29;1235;-92
2024/01/13 00:16:43;;;;;;;29.75;16.98;;;;;;;6.20;58.93;102147.06;672335;29;1246;-93
2024/01/13 00:17:04;;;;;;;31.00;16.97;;;;;;;6.13;58.90;102145.75;674903;29;1360;-92
2024/01/13 00:17:25;;;;;;;29.85;16.10;;;;;;;6.15;58.49;102149.34;677519;29;1383;-93
2024/01/13 00:17:45;;;;;;;32.22;16.48;;;;;;;6.21;58.75;102156.69;674269;29;1360;-93
2024/01/13 00:18:06;;;;;;;33.40;16.73;;;;;;;6.11;58.81;102146.44;674615;29;1314;-93
2024/01/13 00:18:27;;;;;;;32.92;17.05;;;;;;;6.12;59.23;102148.25;669709;29;1382;-93
2024/01/13 00:18:47;;;;;;;33.37;17.20;;;;;;;6.14;58.95;102144.09;669445;29;1183;-93
2024/01/13 00:19:08;;;;;;;32.55;16.92;;;;;;;6.12;59.13;102140.47;672194;29;1444;-93
2024/01/13 00:19:29;;;;;;;31.55;16.27;;;;;;;6.14;59.38;102152.75;669943;29;1317;-93
2024/01/13 00:19:49;;;;;;;28.33;15.60;;;;;;;6.10;58.93;102149.84;674988;29;1298;-93
2024/01/13 00:20:12;;;;;;;28.88;16.20;;;;;;;6.05;59.33;102158.97;675004;29;1323;-93
2024/01/13 00:20:33;;;;;;;30.00;16.10;;;;;;;6.08;59.00;102149.72;677345;29;1388;-93
2024/01/13 00:20:53;;;;;;;30.27;15.73;;;;;;;6.06;59.06;102143.53;672448;29;1222;-93
2024/01/13 00:21:14;;;;;;;27.73;15.07;;;;;;;6.11;59.01;102151.63;674864;29;1254;-93
2024/01/13 00:21:35;;;;;;;26.95;15.38;;;;;;;6.09;58.97;102148.03;672737;29;1160;-92
2024/01/13 00:21:55;;;;;;;25.88;15.73;;;;;;;6.09;58.83;102153.22;672474;29;1325;-93
2024/01/13 00:22:16;;;;;;;27.67;15.85;;;;;;;6.07;59.24;102152.22;672411;29;1467;-93
2024/01/13 00:22:36;;;;;;;28.47;16.67;;;;;;;6.08;59.31;102151.44;674784;29;1543;-93
2024/01/13 00:22:57;;;;;;;28.30;16.60;;;;;;;5.97;59.14;102128.28;672296;29;1153;-92
2024/01/13 00:23:18;;;;;;;30.30;16.70;;;;;;;5.98;59.59;102134.34;672105;29;1194;-93
2024/01/13 00:23:39;;;;;;;31.58;16.55;;;;;;;6.00;59.10;102144.03;670947;29;1380;-92
2024/01/13 00:24:00;;;;;;;30.02;16.23;;;;;;;5.97;59.14;102138.66;672472;29;1339;-93
2024/01/13 00:24:20;;;;;;;27.67;16.17;;;;;;;6.00;59.27;102141.44;669744;29;1161;-92
2024/01/13 00:24:41;;;;;;;26.00;15.53;;;;;;;5.94;59.29;102133.22;671978;29;1213;-93
2024/01/13 00:25:02;;;;;;;28.97;15.97;;;;;;;5.97;59.40;102127.38;672413;29;1115;-93
2024/01/13 00:25:23;;;;;;;30.88;16.10;;;;;;;6.00;59.23;102133.66;677606;29;1511;-93
2024/01/13 00:25:43;;;;;;;34.05;15.82;;;;;;;6.05;59.09;102135.66;674621;29;1236;-93
2024/01/13 00:26:04;;;;;;;32.07;15.87;;;;;;;6.12;59.00;102156.94;671970;29;1175;-93
2024/01/13 00:26:25;;;;;;;30.08;15.40;;;;;;;6.05;59.16;102135.66;669750;29;1210;-93
2024/01/13 00:26:45;;;;;;;28.08;16.00;;;;;;;6.11;59.57;102151.63;669720;29;1213;-93
2024/01/13 00:27:06;;;;;;;32.95;16.40;;;;;;;6.00;59.53;102131.06;669665;29;1912;-93
2024/01/13 00:27:27;;;;;;;38.72;17.65;;;;;;;6.07;59.30;102140.16;669822;29;1209;-91
2024/01/13 00:27:48;;;;;;;38.00;17.47;;;;;;;6.08;59.47;102146.25;669667;29;1164;-92
2024/01/13 00:28:08;;;;;;;35.33;17.50;;;;;;;6.08;59.11;102138.47;672438;29;1115;-92
2024/01/13 00:28:29;;;;;;;32.65;17.33;;;;;;;6.11;59.25;102142.16;674968;29;1215;-93
2024/01/13 00:28:49;;;;;;;32.15;17.20;;;;;;;6.14;59.06;102144.97;674588;29;1299;-93
2024/01/13 00:29:11;;;;;;;30.67;16.13;;;;;;;6.12;59.06;102143.06;669681;29;1229;-92
2024/01/13 00:29:33;;;;;;;36.03;16.50;;;;;;;6.10;59.19;102139.47;667226;29;1247;-92
2024/01/13 00:29:53;;;;;;;39.17;16.33;;;;;;;6.05;58.91;102136.56;667281;29;1213;-93
2024/01/13 00:30:15;;;;;;;38.47;16.97;;;;;;;6.08;58.90;102135.88;669765;29;1113;-92
2024/01/13 00:30:35;;;;;;;32.08;16.40;;;;;;;6.04;59.04;102129.59;672218;29;1298;-92
2024/01/13 00:30:56;;;;;;;31.05;16.90;;;;;;;6.14;59.18;102144.09;669783;29;1259;-92
2024/01/13 00:31:17;;;;;;;33.80;17.17;;;;;;;6.14;59.27;102149.28;669824;29;1224;-92
2024/01/13 00:31:37;;;;;;;37.40;18.03;;;;;;;6.09;59.49;102140.25;670697;29;1291;-92
2024/01/13 00:31:58;;;;;;;35.85;17.42;;;;;;;6.12;59.22;102143.06;669906;29;1205;-92
2024/01/13 00:32:19;;;;;;;33.97;17.13;;;;;;;6.12;58.93;102137.88;672295;29;1142;-91
2024/01/13 00:32:40;;;;;;;30.05;16.38;;;;;;;6.13;59.13;102143.16;670922;29;1203;-92
2024/01/13 00:33:01;;;;;;;31.77;16.60;;;;;;;6.08;59.10;102135.88;672378;29;1175;-92
2024/01/13 00:33:22;;;;;;;34.20;16.17;;;;;;;6.07;59.32;102121.13;675070;29;1341;-92
2024/01/13 00:33:43;;;;;;;33.17;16.25;;;;;;;6.14;59.12;102137.19;669549;29;1444;-92
2024/01/13 00:34:04;;;;;;;29.60;15.90;;;;;;;6.11;59.43;102136.06;669737;29;1453;-92
2024/01/13 00:34:25;;;;;;;25.33;15.80;;;;;;;6.08;59.05;102135.88;667252;29;1425;-92
2024/01/13 00:34:46;;;;;;;26.60;15.63;;;;;;;6.11;58.73;102138.66;671660;29;822;-92
2024/01/13 00:35:06;;;;;;;27.30;16.05;;;;;;;6.10;59.16;102124.84;669730;29;1286;-92
2024/01/13 00:35:27;;;;;;;28.48;15.82;;;;;;;6.07;58.87;102132.38;669858;29;1203;-92
2024/01/13 00:35:48;;;;;;;29.83;15.93;;;;;;;6.08;58.91;102123.81;671889;29;1148;-92
2024/01/13 00:36:10;;;;;;;30.45;15.50;;;;;;;6.14;59.15;102131.13;667133;29;1338;-92
2024/01/13 00:36:30;;;;;;;31.85;15.32;;;;;;;6.13;58.92;102144.84;669518;29;1430;-92
2024/01/13 00:36:51;;;;;;;31.05;15.43;;;;;;;6.09;59.03;102119.53;670655;29;1092;-92
2024/01/13 00:37:12;;;;;;;31.48;15.70;;;;;;;6.08;58.98;102120.31;672356;29;1184;-92
2024/01/13 00:37:33;;;;;;;30.75;16.30;;;;;;;6.15;59.04;102138.09;669460;29;1397;-92
2024/01/13 00:37:53;;;;;;;31.33;16.33;;;;;;;6.14;58.94;102126.81;667213;29;1249;-92
2024/01/13 00:38:14;;;;;;;30.80;16.10;;;;;;;6.09;59.00;102122.13;669677;29;1427;-92
2024/01/13 00:38:34;;;;;;;32.70;16.20;;;;;;;6.15;59.12;102132.91;672048;29;1265;-92
2024/01/13 00:38:55;;;;;;;29.30;15.75;;;;;;;6.12;58.90;102133.59;672358;29;1249;-92
2024/01/13 00:39:16;;;;;;;29.57;15.77;;;;;;;6.11;59.16;102125.72;671250;29;1198;-92
2024/01/13 00:39:36;;;;;;;29.10;15.57;;;;;;;6.16;59.23;102139.91;673915;29;1050;-92
2024/01/13 00:39:57;;;;;;;30.08;15.90;;;;;;;6.12;59.01;102132.69;674759;29;1458;-92
2024/01/13 00:40:18;;;;;;;28.15;16.25;;;;;;;6.09;59.27;102116.94;674976;29;956;-92
2024/01/13 00:40:38;;;;;;;25.88;15.93;;;;;;;6.10;59.34;102114.47;669460;29;1265;-92
2024/01/13 00:40:59;;;;;;;26.50;15.70;;;;;;;6.20;58.86;102131.50;667450;29;1356;-92
2024/01/13 00:41:20;;;;;;;26.25;15.05;;;;;;;6.11;59.14;102125.72;667857;29;1434;-92
2024/01/13 00:41:41;;;;;;;29.35;15.48;;;;;;;6.06;58.80;102121.94;670806;29;1233;-92
2024/01/13 00:42:02;;;;;;;30.25;15.60;;;;;;;6.13;58.99;102126.69;672290;29;1277;-92
2024/01/13 00:42:23;;;;;;;31.95;15.50;;;;;;;6.14;59.03;102116.44;667632;29;1468;-92
2024/01/13 00:42:44;;;;;;;29.20;15.17;;;;;;;6.10;58.96;102118.72;671984;29;1170;-92
2024/01/13 00:43:04;;;;;;;32.88;15.93;;;;;;;6.14;59.28;102126.81;672364;29;1181;-92
2024/01/13 00:43:28;;;;;;;32.55;16.30;;;;;;;6.14;58.96;102121.63;669384;29;1746;-92
2024/01/13 00:43:49;;;;;;;28.98;15.90;;;;;;;6.12;59.24;102127.50;672159;29;1278;-91
2024/01/13 00:44:09;;;;;;;28.48;15.23;;;;;;;6.07;59.09;102113.34;672285;29;1277;-92
2024/01/13 00:44:30;;;;;;;28.83;15.02;;;;;;;6.19;59.22;102145.28;672313;29;1291;-92
2024/01/13 00:44:51;;;;;;;30.75;15.05;;;;;;;6.16;59.28;102135.59;672384;29;1237;-92
2024/01/13 00:45:12;;;;;;;27.53;15.43;;;;;;;6.14;58.99;102125.94;669664;29;1221;-92
2024/01/13 00:45:34;;;;;;;27.07;15.13;;;;;;;6.08;59.08;102131.56;669336;29;1446;-92
2024/01/13 00:45:58;;;;;;;27.85;15.57;;;;;;;6.15;59.49;102138.09;671816;29;1218;-92
2024/01/13 00:46:19;;;;;;;27.75;15.20;;;;;;;6.09;59.27;102129.91;669730;29;1254;-92
2024/01/13 00:46:39;;;;;;;26.30;14.55;;;;;;;6.12;59.16;102135.28;672564;29;1273;-92
2024/01/13 00:47:00;;;;;;;25.10;14.40;;;;;;;6.03;58.94;102118.31;674391;29;1922;-92
2024/01/13 00:47:21;;;;;;;26.63;14.00;;;;;;;6.12;59.12;102133.59;669328;29;1658;-92
2024/01/13 00:47:42;;;;;;;27.17;14.60;;;;;;;6.10;59.38;102130.00;677139;29;1255;-92
2024/01/13 00:48:03;;;;;;;26.20;14.90;;;;;;;6.07;59.43;102123.72;674879;29;1026;-93
2024/01/13 00:48:24;;;;;;;26.83;15.38;;;;;;;6.13;59.01;102121.53;672201;29;1071;-92
2024/01/13 00:48:45;;;;;;;31.33;15.77;;;;;;;6.10;59.54;102123.91;674716;29;1268;-92
2024/01/13 00:49:05;;;;;;;29.90;15.40;;;;;;;6.18;59.50;102135.69;672370;29;1238;-92
2024/01/13 00:49:29;;;;;;;33.03;15.75;;;;;;;6.13;59.25;102119.84;669561;29;1287;-92
2024/01/13 00:49:50;;;;;;;31.00;15.65;;;;;;;6.11;58.95;102117.94;671985;29;1236;-92
2024/01/13 00:50:11;;;;;;;34.20;15.85;;;;;;;6.11;59.36;102117.94;669666;29;1239;-92
2024/01/13 00:50:32;;;;;;;34.05;15.93;;;;;;;6.15;59.40;102125.13;669475;29;1602;-92
2024/01/13 00:50:53;;;;;;;34.00;15.85;;;;;;;6.09;58.79;102122.13;669836;29;1476;-92
2024/01/13 00:51:14;;;;;;;29.93;16.17;;;;;;;6.15;59.11;102117.38;667251;29;1112;-92
2024/01/13 00:51:35;;;;;;;26.05;15.63;;;;;;;6.14;59.45;102118.16;674567;29;1508;-92
2024/01/13 00:51:56;;;;;;;25.67;15.55;;;;;;;6.14;59.13;102112.97;677514;29;1048;-92
2024/01/13 00:52:19;;;;;;;23.73;14.87;;;;;;;6.10;59.14;102118.72;672088;29;1250;-92
2024/01/13 00:52:40;;;;;;;27.15;15.93;;;;;;;6.13;59.28;102113.75;672148;29;1338;-92
2024/01/13 00:53:00;;;;;;;29.55;17.00;;;;;;;6.15;59.17;102115.66;674803;29;1354;-92
2024/01/13 00:53:21;;;;;;;30.27;16.63;;;;;;;6.17;59.31;102115.75;677376;29;1737;-92
2024/01/13 00:53:42;;;;;;;30.88;16.15;;;;;;;6.16;59.41;102113.97;675728;29;1221;-92
2024/01/13 00:54:06;;;;;;;29.90;15.88;;;;;;;6.12;59.01;102109.34;669761;29;1206;-92
2024/01/13 00:54:26;;;;;;;28.15;15.88;;;;;;;6.19;59.26;102108.97;674830;29;1071;-92
2024/01/13 00:54:47;;;;;;;30.23;15.50;;;;;;;6.20;58.99;102121.13;679939;29;1143;-92
2024/01/13 00:55:08;;;;;;;32.15;15.35;;;;;;;6.19;58.88;102111.56;677273;29;1268;-93
2024/01/13 00:55:28;;;;;;;32.88;15.15;;;;;;;6.21;59.26;102117.78;672198;29;1491;-92
2024/01/13 00:55:49;;;;;;;32.10;15.00;;;;;;;6.27;59.11;102123.34;674375;29;1271;-92
2024/01/13 00:56:10;;;;;;;29.77;15.33;;;;;;;6.26;59.42;102113.78;672170;29;1352;-92
2024/01/13 00:56:30;;;;;;;29.70;16.05;;;;;;;6.20;59.08;102104.72;667150;29;1487;-93
2024/01/13 00:56:53;;;;;;;27.27;16.58;;;;;;;6.26;58.74;102120.69;669967;29;809;-92
2024/01/13 00:57:14;;;;;;;28.83;16.38;;;;;;;6.11;59.08;102111.06;674868;29;1314;-92
2024/01/13 00:57:34;;;;;;;27.53;15.83;;;;;;;6.12;58.81;102109.34;669322;29;1228;-92
2024/01/13 00:57:55;;;;;;;26.48;15.48;;;;;;;6.08;59.22;102109.97;672108;29;1321;-92
2024/01/13 00:58:16;;;;;;;25.48;16.13;;;;;;;6.10;59.25;102114.47;672319;29;1193;-92
2024/01/13 00:58:37;;;;;;;27.20;16.58;;;;;;;6.21;58.97;102122.06;675301;29;1136;-91
2024/01/13 00:58:58;;;;;;;31.98;16.50;;;;;;;6.13;59.00;102105.97;667156;29;1359;-92
2024/01/13 00:59:19;;;;;;;32.90;16.40;;;;;;;6.13;58.88;102103.38;669711;29;1149;-92
2024/01/13 00:59:40;;;;;;;30.58;15.68;;;;;;;6.09;59.06;102101.38;671536;29;1400;-92
2024/01/13 01:00:00;;;;;;;26.55;15.93;;;;;;;6.11;58.97;102107.56;672319;29;1285;-92
2024/01/13 01:00:21;;;;;;;27.65;16.75;;;;;;;6.12;58.91;102111.94;672325;29;1191;-92
2024/01/13 01:00:42;;;;;;;32.65;17.48;;;;;;;6.10;59.12;102104.09;675777;29;1265;-92
2024/01/13 01:01:03;;;;;;;32.77;16.40;;;;;;;6.14;59.31;102112.97;674766;29;1232;-93
2024/01/13 01:01:23;;;;;;;31.40;15.68;;;;;;;6.07;59.43;102102.97;669791;29;1406;-92
2024/01/13 01:01:44;;;;;;;30.38;15.75;;;;;;;6.09;59.01;102103.97;675157;29;1172;-92
2024/01/13 01:02:05;;;;;;;31.70;16.65;;;;;;;6.07;59.08;102113.34;674757;29;1271;-92
2024/01/13 01:02:26;;;;;;;31.27;17.00;;;;;;;6.13;59.44;102105.97;672299;29;1289;-92
2024/01/13 01:02:46;;;;;;;28.47;16.03;;;;;;;6.11;58.67;102104.97;671962;29;1146;-92
2024/01/13 01:03:07;;;;;;;27.17;15.83;;;;;;;6.06;59.25;102099.47;669769;29;1208;-92
2024/01/13 01:03:27;;;;;;;28.45;15.60;;;;;;;6.03;59.16;102102.75;670861;29;1328;-92
2024/01/13 01:03:48;;;;;;;27.58;15.40;;;;;;;6.09;58.79;102114.34;669510;29;1242;-92
2024/01/13 01:04:09;;;;;;;27.87;14.70;;;;;;;6.10;59.02;102113.53;669709;29;1220;-92
2024/01/13 01:04:29;;;;;;;25.75;13.95;;;;;;;6.11;59.22;102116.25;671977;29;1206;-92
2024/01/13 01:04:50;;;;;;;27.23;14.27;;;;;;;6.07;59.20;102113.34;669654;29;1381;-92
2024/01/13 01:05:11;;;;;;;28.48;14.85;;;;;;;6.09;58.85;102112.66;669357;29;1211;-92
2024/01/13 01:05:31;;;;;;;29.77;15.30;;;;;;;6.02;58.72;102108.75;669437;29;1255;-92
2024/01/13 01:05:53;;;;;;;26.40;14.52;;;;;;;6.09;58.95;102114.34;666878;29;1427;-92
2024/01/13 01:06:14;;;;;;;28.58;15.38;;;;;;;6.09;58.70;102111.75;669969;29;1106;-92
2024/01/13 01:06:35;;;;;;;27.92;15.68;;;;;;;6.05;58.85;102109.72;672009;29;1236;-93
2024/01/13 01:06:55;;;;;;;26.55;15.95;;;;;;;6.12;59.16;102127.50;672304;29;1976;-92
2024/01/13 01:07:16;;;;;;;24.07;15.63;;;;;;;6.08;59.34;102117.72;674733;29;1236;-92
2024/01/13 01:07:37;;;;;;;25.60;15.63;;;;;;;6.04;59.38;102119.22;672119;29;1285;-92
2024/01/13 01:07:57;;;;;;;27.75;16.10;;;;;;;6.01;59.15;102114.72;672364;29;1127;-92
2024/01/13 01:08:18;;;;;;;30.10;16.00;;;;;;;6.05;59.47;102109.72;672253;29;1293;-92
2024/01/13 01:08:39;;;;;;;29.87;16.00;;;;;;;5.97;59.33;102107.53;669528;29;1280;-92
2024/01/13 01:08:59;;;;;;;31.10;16.00;;;;;;;5.99;59.23;102103.34;675070;29;1139;-92
2024/01/13 01:09:21;;;;;;;30.05;15.82;;;;;;;6.00;59.29;102092.19;675046;29;1123;-92
2024/01/13 01:09:41;;;;;;;28.88;15.50;;;;;;;5.99;59.06;102110.22;674556;29;1295;-92
2024/01/13 01:10:02;;;;;;;27.50;16.08;;;;;;;5.98;58.98;102098.97;674788;29;1276;-92
2024/01/13 01:10:23;;;;;;;25.98;15.38;;;;;;;6.10;59.32;102118.72;672374;29;1167;-93
2024/01/13 01:10:43;;;;;;;27.07;15.27;;;;;;;6.08;59.41;102112.56;668365;29;1137;-92
2024/01/13 01:11:06;;;;;;;26.98;14.27;;;;;;;6.08;58.88;102125.50;669794;29;1141;-93
2024/01/13 01:11:27;;;;;;;28.25;14.73;;;;;;;5.89;59.22;102103.50;674685;29;1301;-92
2024/01/13 01:11:48;;;;;;;26.20;14.45;;;;;;;6.02;59.29;102111.31;672196;29;1346;-93
2024/01/13 01:12:09;;;;;;;26.67;14.90;;;;;;;5.94;59.19;102112.50;669911;29;1350;-92
2024/01/13 01:12:30;;;;;;;28.84;14.58;;;;;;;5.89;59.55;102106.09;671418;29;1545;-92
2024/01/13 01:12:51;;;;;;;28.07;14.60;;;;;;;5.95;59.69;102118.59;672205;29;1115;-93
2024/01/13 01:13:11;;;;;;;27.83;14.13;;;;;;;5.95;59.27;102108.22;669795;29;997;-92
2024/01/13 01:13:32;;;;;;;27.80;14.85;;;;;;;6.02;59.19;102110.44;672088;29;1159;-92
2024/01/13 01:13:53;;;;;;;26.52;15.02;;;;;;;5.95;59.50;102101.34;669728;29;1037;-92
2024/01/13 01:14:14;;;;;;;25.20;14.60;;;;;;;5.91;59.04;102107.13;672127;29;1164;-92
2024/01/13 01:14:34;;;;;;;24.47;14.13;;;;;;;5.98;59.64;102114.53;672356;29;1048;-92
2024/01/13 01:14:55;;;;;;;25.15;13.55;;;;;;;5.95;59.18;102108.22;667389;29;1282;-92
2024/01/13 01:15:16;;;;;;;22.88;13.43;;;;;;;5.96;59.36;102104.84;669894;29;1105;-92
2024/01/13 01:15:37;;;;;;;25.35;14.88;;;;;;;5.98;59.43;102098.97;670941;29;1627;-92
2024/01/13 01:15:57;;;;;;;24.27;15.30;;;;;;;6.00;59.28;102110.34;669384;29;1156;-92
2024/01/13 01:16:18;;;;;;;26.90;15.60;;;;;;;5.96;59.56;102113.50;668958;29;1081;-92
2024/01/13 01:16:39;;;;;;;26.50;14.82;;;;;;;5.92;59.30;102098.53;669357;29;1372;-92
2024/01/13 01:16:59;;;;;;;28.83;15.23;;;;;;;5.96;59.15;102097.06;672313;29;1159;-92
2024/01/13 01:17:20;;;;;;;31.57;15.97;;;;;;;5.98;59.36;102093.78;674891;29;1083;-92
2024/01/13 01:17:41;;;;;;;30.00;16.10;;;;;;;6.01;59.15;102093.06;672090;29;1752;-92
2024/01/13 01:18:01;;;;;;;28.65;15.40;;;;;;;6.05;59.14;102101.97;669597;29;1285;-92
2024/01/13 01:18:22;;;;;;;25.85;14.73;;;;;;;6.02;59.43;102089.72;667136;29;1210;-92
2024/01/13 01:18:43;;;;;;;25.67;14.38;;;;;;;6.03;59.21;102096.69;668939;29;1585;-92
2024/01/13 01:19:04;;;;;;;28.53;14.97;;;;;;;6.05;59.56;102101.97;672077;29;1132;-92
2024/01/13 01:19:24;;;;;;;31.75;14.70;;;;;;;6.08;59.45;102095.28;672543;29;1336;-92
2024/01/13 01:19:45;;;;;;;30.65;14.50;;;;;;;6.08;59.14;102091.81;679702;29;1298;-92
2024/01/13 01:20:06;;;;;;;27.17;13.52;;;;;;;6.14;59.46;102108.66;674904;29;1284;-92
2024/01/13 01:20:26;;;;;;;25.23;14.30;;;;;;;6.14;58.86;102100.00;673707;29;1462;-92
2024/01/13 01:20:47;;;;;;;29.40;15.40;;;;;;;6.11;59.44;102097.19;672221;29;1346;-93
2024/01/13 01:21:08;;;;;;;33.37;16.20;;;;;;;6.18;58.90;102106.31;669822;29;1211;-93
2024/01/13 01:21:28;;;;;;;32.90;15.70;;;;;;;6.10;59.18;102100.59;674764;29;1257;-92
2024/01/13 01:21:49;;;;;;;29.23;15.17;;;;;;;6.13;59.45;102100.78;671424;29;1300;-92
2024/01/13 01:22:10;;;;;;;24.53;14.57;;;;;;;6.11;59.30;102094.59;669705;29;1309;-93
2024/01/13 01:22:30;;;;;;;24.93;14.80;;;;;;;6.09;59.14;102093.63;669751;29;1464;-92
2024/01/13 01:22:51;;;;;;;25.83;15.00;;;;;;;6.07;59.46;102092.63;671984;29;1251;-93
2024/01/13 01:23:12;;;;;;;26.33;15.25;;;;;;;6.10;59.44;102098.91;674598;29;1668;-92
2024/01/13 01:23:32;;;;;;;25.50;15.00;;;;;;;6.00;59.30;102086.09;677270;29;1213;-93
2024/01/13 01:23:53;;;;;;;26.55;14.77;;;;;;;6.15;59.13;102112.19;672227;29;1157;-92
2024/01/13 01:24:13;;;;;;;29.77;15.27;;;;;;;6.10;59.02;102098.00;669782;29;1155;-92
2024/01/13 01:24:34;;;;;;;29.47;15.03;;;;;;;6.11;59.29;102097.19;674589;29;1253;-92
2024/01/13 01:24:54;;;;;;;31.55;15.43;;;;;;;6.11;59.27;102097.19;669992;29;1321;-93
2024/01/13 01:25:15;;;;;;;28.80;14.37;;;;;;;6.10;59.09;102088.53;669661;29;1464;-92
2024/01/13 01:25:36;;;;;;;27.50;14.33;;;;;;;6.18;59.06;102096.81;667489;29;1428;-92
2024/01/13 01:25:56;;;;;;;27.00;14.10;;;;;;;6.14;59.13;102089.66;669505;29;1195;-92
2024/01/13 01:26:17;;;;;;;28.73;15.23;;;;;;;6.16;58.90;102098.41;674587;29;1234;-92
2024/01/13 01:26:38;;;;;;;28.43;15.70;;;;;;;6.15;59.43;102097.50;667065;29;1278;-92
2024/01/13 01:26:58;;;;;;;28.67;15.32;;;;;;;6.12;59.04;102086.03;669900;29;1973;-92
2024/01/13 01:27:19;;;;;;;28.15;15.35;;;;;;;6.23;59.24;102108.41;672227;29;1207;-92
2024/01/13 01:27:39;;;;;;;29.45;15.35;;;;;;;6.23;58.99;102103.22;672085;29;1277;-92
2024/01/13 01:28:00;;;;;;;29.47;16.00;;;;;;;6.28;58.98;102113.91;674974;29;958;-92
2024/01/13 01:28:22;;;;;;;27.02;14.75;;;;;;;6.20;59.14;102096.94;672161;29;1228;-92
2024/01/13 01:28:43;;;;;;;24.85;14.73;;;;;;;6.16;59.05;102088.03;674510;29;1389;-92
2024/01/13 01:29:03;;;;;;;23.65;15.40;;;;;;;6.23;58.79;102094.53;674798;29;1250;-92
2024/01/13 01:29:24;;;;;;;30.73;16.40;;;;;;;6.21;58.63;102094.44;672095;29;1231;-91
2024/01/13 01:29:45;;;;;;;31.27;16.07;;;;;;;6.28;58.87;102114.78;669552;29;1079;-92
2024/01/13 01:30:06;;;;;;;33.70;16.02;;;;;;;6.27;58.84;102101.75;669769;29;1136;-92
2024/01/13 01:30:27;;;;;;;31.48;15.80;;;;;;;6.28;58.59;102104.41;672274;29;1248;-92
2024/01/13 01:30:47;;;;;;;32.42;15.85;;;;;;;6.19;58.82;102096.03;674766;29;1500;-92
2024/01/13 01:31:08;;;;;;;30.25;16.10;;;;;;;6.23;59.06;102099.72;672283;29;1233;-92
2024/01/13 01:31:28;;;;;;;33.60;16.00;;;;;;;6.19;59.10;102097.72;669692;29;1001;-92
2024/01/13 01:31:49;;;;;;;34.45;16.20;;;;;;;6.20;59.08;102097.81;674271;29;1353;-92
2024/01/13 01:32:10;;;;;;;33.85;16.23;;;;;;;6.20;59.48;102097.81;672193;29;1203;-93
2024/01/13 01:32:30;;;;;;;31.27;16.63;;;;;;;6.21;59.20;102090.94;669588;29;1069;-93
2024/01/13 01:32:51;;;;;;;31.10;16.87;;;;;;;6.21;58.89;102085.75;671765;29;1295;-92
2024/01/13 01:33:12;;;;;;;33.38;16.95;;;;;;;6.21;58.90;102090.94;669724;29;1281;-92
2024/01/13 01:33:32;;;;;;;35.85;16.85;;;;;;;6.17;59.00;102087.25;674627;29;1238;-93
2024/01/13 01:33:53;;;;;;;37.97;17.30;;;;;;;6.26;59.25;102107.72;669677;29;1171;-92
2024/01/13 01:34:14;;;;;;;35.03;17.43;;;;;;;6.19;59.04;102097.72;667161;29;1161;-92
2024/01/13 01:34:34;;;;;;;33.40;16.90;;;;;;;6.17;59.14;102095.03;672179;29;1295;-92
2024/01/13 01:34:55;;;;;;;33.90;16.63;;;;;;;6.08;59.43;102079.75;674960;29;1346;-93
2024/01/13 01:35:16;;;;;;;32.40;15.80;;;;;;;6.05;59.21;102074.38;672232;29;1681;-92
2024/01/13 01:35:36;;;;;;;31.07;16.60;;;;;;;6.07;59.32;102077.06;669533;29;1235;-93
2024/01/13 01:35:57;;;;;;;30.88;16.50;;;;;;;6.09;59.10;102091.03;666971;29;1198;-92
2024/01/13 01:36:18;;;;;;;34.45;18.00;;;;;;;6.15;59.33;102096.63;669790;29;1000;-93
2024/01/13 01:36:38;;;;;;;35.03;18.07;;;;;;;6.09;59.16;102080.66;670088;29;1322;-93
2024/01/13 01:36:59;;;;;;;32.20;17.48;;;;;;;6.19;59.31;102087.38;667247;29;1169;-92
2024/01/13 01:37:19;;;;;;;31.80;16.85;;;;;;;6.12;59.14;102086.03;674834;29;1221;-92
2024/01/13 01:37:40;;;;;;;32.57;17.37;;;;;;;6.16;59.06;102082.88;674607;29;1143;-93
2024/01/13 01:38:01;;;;;;;36.43;17.50;;;;;;;6.12;59.04;102080.84;672063;29;1487;-92